Time;durP1;ratioP1;P1;durP2;ratioP2;P2;SDS_P1;SDS_P2;PMS_P1;PMS_P2;Temp;Humidity;BMP_temperature;BMP_pressure;BME280_temperature;BME280_humidity;BME280_pressure;Samples;Min_cycle;Max_cycle;Signal;HPM_P1;HPM_P2
2023/02/08 07:50:46;;;;;;;13.03;7.37;;;-6.70;99.90;;;;;;5132519;27;20270;-76
2023/02/08 07:53:12;;;;;;;17.03;9.37;;;-6.70;99.90;;;;;;5115680;28;20441;-76
2023/02/08 07:55:37;;;;;;;18.53;9.50;;;-6.60;99.90;;;;;;5131750;27;20651;-76
2023/02/08 07:58:03;;;;;;;17.33;8.77;;;-6.50;99.90;;;;;;5131678;27;20196;-76
2023/02/08 08:00:29;;;;;;;20.20;9.07;;;;;;;;;;5131734;27;20201;-76
2023/02/08 08:02:55;;;;;;;18.77;9.47;;;;;;;;;;5130116;28;20202;-76
2023/02/08 08:05:22;;;;;;;12.57;7.23;;;;;;;;;;5131540;28;20924;-76
2023/02/08 08:08:11;;;;;;;16.27;7.67;;;-6.00;99.90;;;;;;5111901;27;21095;-76
2023/02/08 08:12:17;;;;;;;19.60;9.73;;;-5.30;99.90;;;;;;5132137;27;20284;-76
2023/02/08 08:16:06;;;;;;;15.23;8.80;;;-4.80;99.90;;;;;;5132589;27;20592;-76
2023/02/08 08:18:31;;;;;;;17.30;10.10;;;-4.10;99.90;;;;;;5131834;28;20425;-76
2023/02/08 08:20:57;;;;;;;18.33;9.50;;;-3.20;99.90;;;;;;5131822;28;20202;-76
2023/02/08 08:23:23;;;;;;;17.37;9.03;;;-3.10;99.90;;;;;;5117256;28;20225;-76
2023/02/08 08:25:49;;;;;;;16.97;9.60;;;-2.50;99.90;;;;;;5132055;27;20177;-76
2023/02/08 08:28:15;;;;;;;18.27;10.93;;;-2.30;99.90;;;;;;5132014;27;20223;-77
2023/02/08 08:30:44;;;;;;;21.17;12.03;;;-1.90;99.90;;;;;;5130533;28;20413;-78
2023/02/08 08:33:12;;;;;;;17.60;11.30;;;-1.60;99.90;;;;;;5130138;28;20436;-77
2023/02/08 08:35:38;;;;;;;17.27;10.00;;;-1.50;99.90;;;;;;5130214;28;20456;-77
2023/02/08 08:38:04;;;;;;;16.57;9.40;;;-1.40;99.90;;;;;;5132582;27;20413;-78
2023/02/08 08:40:30;;;;;;;19.60;10.93;;;-1.10;99.90;;;;;;5130435;28;20549;-77
2023/02/08 08:42:56;;;;;;;18.50;10.00;;;-0.90;99.90;;;;;;5130644;28;20690;-78
2023/02/08 08:45:22;;;;;;;18.40;11.00;;;-0.70;99.90;;;;;;5132166;27;20634;-78
2023/02/08 08:47:48;;;;;;;14.33;10.10;;;-0.60;99.90;;;;;;5132220;27;20469;-78
2023/02/08 08:50:13;;;;;;;15.47;10.33;;;-0.90;99.90;;;;;;5132700;27;20179;-78
2023/02/08 08:52:39;;;;;;;14.83;10.17;;;-1.10;99.90;;;;;;5130970;28;20179;-78
2023/02/08 08:55:06;;;;;;;14.97;9.70;;;-1.00;99.90;;;;;;5132473;27;20195;-78
2023/02/08 08:57:31;;;;;;;15.90;11.03;;;-0.80;99.90;;;;;;5132690;27;20209;-78
2023/02/08 08:59:57;;;;;;;13.83;9.77;;;-0.60;99.90;;;;;;5130247;28;20437;-77
2023/02/08 09:02:23;;;;;;;15.90;10.20;;;-0.60;99.90;;;;;;5130826;27;20246;-77
2023/02/08 09:04:49;;;;;;;16.20;10.30;;;-0.60;99.90;;;;;;5129633;28;20694;-77
2023/02/08 09:07:14;;;;;;;14.50;10.03;;;-0.50;99.90;;;;;;5131758;27;20228;-77
2023/02/08 09:09:40;;;;;;;13.87;9.97;;;-0.10;99.90;;;;;;5136272;28;20251;-77
2023/02/08 09:12:06;;;;;;;13.37;9.30;;;0.10;99.90;;;;;;5142405;27;20555;-77
2023/02/08 09:14:32;;;;;;;14.87;10.23;;;0.30;99.90;;;;;;5133527;27;20637;-77
2023/02/08 09:16:58;;;;;;;15.37;10.10;;;0.60;99.90;;;;;;5132746;27;20168;-78
2023/02/08 09:19:24;;;;;;;14.53;9.37;;;0.70;99.90;;;;;;5131213;27;20168;-78
2023/02/08 09:21:49;;;;;;;14.90;9.03;;;0.80;99.90;;;;;;5131496;27;20572;-78
2023/02/08 09:24:15;;;;;;;17.70;12.17;;;0.50;99.90;;;;;;5131263;27;20201;-78
2023/02/08 09:26:41;;;;;;;13.70;9.10;;;0.40;99.90;;;;;;5122277;27;20177;-78
2023/02/08 09:29:07;;;;;;;11.97;9.10;;;0.40;99.90;;;;;;5117853;28;20182;-78
2023/02/08 09:31:36;;;;;;;15.20;10.47;;;-0.10;99.90;;;;;;5118108;28;20168;-77
2023/02/08 09:34:03;;;;;;;13.87;9.40;;;0.30;99.90;;;;;;5116668;28;20212;-77
2023/02/08 09:36:32;;;;;;;14.90;9.90;;;0.60;99.90;;;;;;5117136;28;20179;-78
2023/02/08 09:39:00;;;;;;;11.97;8.70;;;0.70;99.90;;;;;;5116391;28;20287;-77
2023/02/08 09:41:50;;;;;;;12.47;9.03;;;0.70;99.90;;;;;;5117234;28;20206;-77
2023/02/08 09:44:25;;;;;;;12.07;8.73;;;0.40;99.90;;;;;;5117949;28;20195;-78
2023/02/08 09:46:59;;;;;;;12.23;8.23;;;0.60;99.90;;;;;;5118905;28;20593;-78
2023/02/08 09:49:33;;;;;;;13.00;9.37;;;0.70;99.90;;;;;;5118135;28;20199;-77
2023/02/08 09:52:08;;;;;;;12.23;8.77;;;0.90;99.90;;;;;;5118557;28;20186;-78
2023/02/08 09:54:42;;;;;;;11.73;9.00;;;0.90;99.90;;;;;;5119137;28;20203;-78
2023/02/08 09:57:21;;;;;;;12.60;8.93;;;0.90;99.90;;;;;;5118357;27;20164;-78
2023/02/08 10:00:17;;;;;;;15.40;9.13;;;0.90;99.90;;;;;;5119542;28;20216;-78
2023/02/08 10:02:45;;;;;;;14.70;9.80;;;0.70;99.90;;;;;;5115861;28;20183;-78
2023/02/08 10:05:19;;;;;;;16.70;10.40;;;0.60;99.90;;;;;;5120423;28;20187;-78
2023/02/08 10:07:45;;;;;;;13.83;9.60;;;0.90;99.90;;;;;;5119902;28;20171;-78
2023/02/08 10:10:49;;;;;;;12.70;8.57;;;1.30;99.90;;;;;;5119281;28;20193;-78
2023/02/08 10:13:38;;;;;;;13.23;9.67;;;1.40;99.90;;;;;;5116970;28;20195;-78
2023/02/08 10:16:22;;;;;;;13.17;8.83;;;1.70;99.90;;;;;;5118003;28;20259;-78
2023/02/08 10:19:06;;;;;;;13.37;9.67;;;2.10;99.90;;;;;;5120613;28;20352;-77
2023/02/08 10:21:53;;;;;;;12.47;9.27;;;1.80;99.90;;;;;;5119394;28;20266;-78
2023/02/08 10:24:24;;;;;;;12.47;8.87;;;1.90;99.90;;;;;;5119631;28;20259;-78
2023/02/08 10:27:13;;;;;;;13.23;8.63;;;2.00;99.90;;;;;;5122955;28;20172;-78
2023/02/08 10:29:57;;;;;;;12.17;9.03;;;2.10;99.90;;;;;;5122729;28;20250;-80
2023/02/08 10:32:47;;;;;;;11.03;9.23;;;2.00;99.90;;;;;;5123126;28;20177;-79
2023/02/08 10:35:26;;;;;;;13.07;8.97;;;2.30;99.90;;;;;;5122267;28;20652;-79
2023/02/08 10:37:53;;;;;;;15.60;9.30;;;2.00;99.90;;;;;;5130376;28;20178;-78
2023/02/08 10:40:38;;;;;;;14.67;9.80;;;1.50;99.90;;;;;;5131415;28;20179;-78
2023/02/08 10:43:25;;;;;;;14.40;9.67;;;1.60;99.90;;;;;;5120505;28;20191;-78
2023/02/08 10:45:51;;;;;;;13.90;9.27;;;1.60;99.90;;;;;;5119676;28;20170;-79
2023/02/08 10:48:42;;;;;;;13.20;9.63;;;1.90;99.90;;;;;;5118812;28;20196;-79
2023/02/08 10:51:14;;;;;;;13.17;9.43;;;2.20;99.90;;;;;;5119513;28;20685;-78
2023/02/08 10:53:40;;;;;;;13.23;9.03;;;2.20;99.90;;;;;;5117423;28;20233;-78
2023/02/08 10:56:09;;;;;;;14.60;9.43;;;1.90;99.90;;;;;;5118134;28;20204;-78
2023/02/08 10:58:35;;;;;;;14.63;8.33;;;2.20;99.90;;;;;;5115598;28;20194;-78
2023/02/08 11:01:02;;;;;;;12.53;8.73;;;2.60;99.90;;;;;;5116820;28;20172;-78
2023/02/08 11:03:28;;;;;;;11.30;8.67;;;2.90;99.90;;;;;;5115033;28;20557;-80
2023/02/08 11:05:55;;;;;;;11.40;8.60;;;2.90;99.90;;;;;;5114273;28;20228;-79
2023/02/08 11:08:23;;;;;;;11.57;8.33;;;3.20;99.90;;;;;;5120196;28;20180;-80
2023/02/08 11:10:59;;;;;;;9.93;8.13;;;3.10;99.90;;;;;;5120523;28;20171;-80
2023/02/08 11:13:32;;;;;;;11.47;8.47;;;3.50;99.90;;;;;;5120300;28;20218;-80
2023/02/08 11:16:00;;;;;;;12.00;7.77;;;3.40;99.90;;;;;;5121610;28;20294;-79
2023/02/08 11:18:55;;;;;;;11.40;7.77;;;3.10;98.80;;;;;;5120437;28;20533;-79
2023/02/08 11:21:32;;;;;;;10.53;7.80;;;3.10;99.80;;;;;;5111931;28;20528;-79
2023/02/08 11:24:00;;;;;;;10.33;7.63;;;3.50;99.60;;;;;;5120810;28;20202;-79
2023/02/08 11:26:29;;;;;;;10.70;6.33;;;3.70;97.20;;;;;;5122524;27;20501;-79
2023/02/08 11:29:07;;;;;;;10.17;6.80;;;3.60;95.80;;;;;;5121238;28;20683;-79
2023/02/08 11:31:35;;;;;;;10.13;6.60;;;3.70;96.00;;;;;;5121734;28;20260;-79
2023/02/08 11:34:03;;;;;;;8.33;6.33;;;3.70;97.10;;;;;;5121153;28;20195;-79
2023/02/08 11:36:33;;;;;;;11.47;7.07;;;3.80;95.40;;;;;;5123870;28;20207;-81
2023/02/08 11:39:26;;;;;;;15.87;10.70;;;4.30;96.90;;;;;;5122070;28;20263;-80
2023/02/08 11:41:58;;;;;;;9.17;6.73;;;4.90;95.70;;;;;;5118254;28;20222;-80
2023/02/08 11:44:34;;;;;;;9.93;6.23;;;5.00;94.30;;;;;;5123298;28;20202;-80
2023/02/08 11:47:02;;;;;;;9.30;6.83;;;5.00;94.10;;;;;;5122535;28;20167;-78
2023/02/08 11:50:02;;;;;;;10.13;6.03;;;4.80;92.70;;;;;;5122534;28;20178;-81
2023/02/08 11:52:31;;;;;;;8.10;5.93;;;4.70;92.20;;;;;;5117717;28;20183;-82
2023/02/08 11:55:16;;;;;;;8.87;5.93;;;4.20;92.20;;;;;;5122351;28;20702;-82
2023/02/08 11:58:17;;;;;;;7.57;5.17;;;4.10;92.50;;;;;;5122126;28;20523;-80
2023/02/08 12:01:15;;;;;;;7.30;5.77;;;4.50;93.10;;;;;;5121556;28;20163;-80
2023/02/08 12:03:41;;;;;;;6.60;5.20;;;4.90;91.60;;;;;;5120395;28;20191;-80
2023/02/08 12:06:15;;;;;;;8.53;5.33;;;4.80;90.80;;;;;;5120718;28;20184;-80
2023/02/08 12:09:02;;;;;;;7.87;4.80;;;4.90;91.10;;;;;;5121782;28;20183;-80
2023/02/08 12:11:41;;;;;;;7.00;4.77;;;5.20;87.90;;;;;;5122604;28;20213;-80
2023/02/08 12:14:38;;;;;;;7.93;4.80;;;5.40;85.80;;;;;;5122286;28;20521;-81
2023/02/08 12:17:26;;;;;;;5.53;4.57;;;5.00;85.30;;;;;;5120480;28;20171;-80
2023/02/08 12:20:26;;;;;;;6.03;4.67;;;5.30;85.60;;;;;;5120917;28;20172;-80
2023/02/08 12:23:15;;;;;;;10.23;5.03;;;5.80;84.70;;;;;;5105167;28;20203;-80
2023/02/08 12:26:18;;;;;;;6.47;4.80;;;6.10;80.90;;;;;;5113734;28;20211;-80
2023/02/08 12:29:18;;;;;;;8.30;5.40;;;6.30;82.40;;;;;;5120855;28;20258;-80
2023/02/08 12:31:54;;;;;;;6.60;4.93;;;6.80;84.20;;;;;;5121307;28;20213;-80
2023/02/08 12:34:38;;;;;;;7.57;5.67;;;7.20;78.20;;;;;;5123132;28;20201;-81
2023/02/08 12:40:51;;;;;;;7.10;5.93;;;6.50;79.90;;;;;;5121322;28;20220;-81
2023/02/08 12:43:38;;;;;;;7.50;5.47;;;6.30;80.80;;;;;;5119761;28;20206;-81
2023/02/08 12:46:09;;;;;;;11.50;5.23;;;6.70;79.40;;;;;;5121643;28;20167;-80
2023/02/08 12:48:59;;;;;;;8.13;5.03;;;6.40;78.20;;;;;;5120729;28;20172;-80
2023/02/08 12:51:34;;;;;;;7.77;6.10;;;6.30;77.60;;;;;;5121130;28;20160;-79
2023/02/08 12:54:09;;;;;;;10.30;6.67;;;6.30;80.00;;;;;;5121044;28;20188;-81
2023/02/08 12:56:39;;;;;;;11.17;6.73;;;5.80;82.10;;;;;;5119928;28;20485;-82
2023/02/08 12:59:06;;;;;;;8.50;7.10;;;6.40;82.30;;;;;;5119547;28;20250;-81
2023/02/08 13:01:43;;;;;;;11.60;7.30;;;7.10;80.70;;;;;;5120883;27;20172;-80
2023/02/08 13:04:15;;;;;;;11.60;7.47;;;7.80;77.60;;;;;;5123310;28;20187;-80
2023/02/08 13:06:43;;;;;;;9.33;7.83;;;7.90;77.00;;;;;;5123759;28;20224;-81
2023/02/08 13:09:28;;;;;;;13.80;7.57;;;7.70;75.50;;;;;;5122358;28;20183;-80
2023/02/08 13:12:17;;;;;;;10.33;6.97;;;7.70;77.80;;;;;;5123209;28;20167;-80
2023/02/08 13:14:49;;;;;;;9.63;7.20;;;8.00;74.60;;;;;;5122123;28;20207;-80
2023/02/08 13:17:43;;;;;;;7.70;6.57;;;8.00;74.60;;;;;;5123019;28;20187;-82
2023/02/08 13:20:15;;;;;;;14.13;7.80;;;7.30;71.80;;;;;;5124326;28;20653;-80
2023/02/08 13:22:41;;;;;;;10.07;7.50;;;7.10;75.40;;;;;;5121626;28;20504;-81
2023/02/08 13:25:23;;;;;;;11.13;7.50;;;7.30;75.60;;;;;;5120976;28;20179;-80
2023/02/08 13:27:50;;;;;;;12.17;8.20;;;7.20;75.70;;;;;;5123279;28;20220;-80
2023/02/08 13:30:21;;;;;;;9.30;7.33;;;7.60;75.80;;;;;;5121384;28;20574;-80
2023/02/08 13:32:49;;;;;;;10.57;7.37;;;8.00;73.40;;;;;;5121876;28;20169;-79
2023/02/08 13:35:19;;;;;;;9.80;6.03;;;8.50;73.30;;;;;;5120405;28;20206;-79
2023/02/08 13:37:51;;;;;;;12.27;6.93;;;8.80;67.20;;;;;;5120287;27;20718;-80
2023/02/08 13:40:25;;;;;;;9.53;6.97;;;8.90;66.10;;;;;;5119144;28;20199;-80
2023/02/08 13:43:27;;;;;;;12.20;6.93;;;8.80;65.60;;;;;;5117523;28;20226;-81
2023/02/08 13:45:58;;;;;;;10.07;7.97;;;7.90;68.70;;;;;;5114012;28;20183;-81
2023/02/08 13:48:25;;;;;;;10.30;7.50;;;5.20;75.20;;;;;;5121484;28;20159;-82
2023/02/08 13:50:54;;;;;;;10.07;7.43;;;3.60;81.10;;;;;;5121024;28;20255;-81
2023/02/08 13:53:46;;;;;;;14.83;7.50;;;2.60;86.60;;;;;;5121695;28;20278;-80
2023/02/08 13:56:12;;;;;;;12.47;8.23;;;2.10;91.10;;;;;;5107400;28;20252;-81
2023/02/08 13:58:59;;;;;;;16.90;7.77;;;3.10;91.10;;;;;;5121190;28;20226;-80
2023/02/08 14:01:29;;;;;;;11.97;8.17;;;4.90;86.70;;;;;;5122452;28;20248;-81
2023/02/08 14:04:07;;;;;;;13.93;8.83;;;5.20;82.20;;;;;;5123173;28;20196;-80
2023/02/08 14:06:48;;;;;;;12.33;7.60;;;4.10;83.80;;;;;;5121654;28;20540;-80
2023/02/08 14:09:30;;;;;;;12.60;7.80;;;4.10;84.40;;;;;;5122919;28;20175;-80
2023/02/08 14:12:02;;;;;;;10.13;6.90;;;2.90;87.10;;;;;;5122091;28;20168;-80
2023/02/08 14:14:36;;;;;;;11.47;7.73;;;2.20;91.30;;;;;;5122473;28;20210;-80
2023/02/08 14:17:24;;;;;;;13.00;8.23;;;1.70;92.20;;;;;;5119209;28;20173;-80
2023/02/08 14:20:02;;;;;;;15.47;8.73;;;1.20;94.20;;;;;;5118780;28;20525;-80
2023/02/08 14:22:39;;;;;;;11.33;7.47;;;0.80;96.50;;;;;;5117259;28;20623;-80
2023/02/08 14:25:16;;;;;;;13.60;8.57;;;0.60;98.00;;;;;;5116566;28;20165;-80
2023/02/08 14:27:56;;;;;;;16.23;8.67;;;0.60;99.70;;;;;;5116650;28;20188;-80
2023/02/08 14:30:28;;;;;;;13.00;7.97;;;0.40;99.70;;;;;;5116057;28;20180;-80
2023/02/08 14:33:18;;;;;;;15.03;8.83;;;0.40;99.90;;;;;;5122791;28;20200;-80
2023/02/08 14:35:59;;;;;;;15.43;9.47;;;0.40;99.90;;;;;;5120509;28;20195;-80
2023/02/08 14:39:04;;;;;;;13.87;7.87;;;0.20;99.90;;;;;;5122697;28;20214;-80
2023/02/08 14:41:49;;;;;;;14.67;8.57;;;0.30;99.90;;;;;;5120338;28;20528;-80
2023/02/08 14:44:37;;;;;;;11.83;7.93;;;0.20;99.90;;;;;;5119986;28;20286;-80
2023/02/08 14:47:14;;;;;;;15.40;9.17;;;0.10;99.90;;;;;;5120082;28;20573;-79
2023/02/08 14:49:42;;;;;;;13.50;8.23;;;;;;;;;;5120277;28;20781;-80
2023/02/08 14:52:18;;;;;;;13.83;8.00;;;0.30;99.90;;;;;;5121202;28;20187;-79
2023/02/08 14:54:50;;;;;;;12.73;7.40;;;0.20;99.90;;;;;;5119393;28;20203;-79
2023/02/08 14:57:24;;;;;;;18.87;9.47;;;0.30;99.90;;;;;;5119991;28;20405;-79
2023/02/08 14:59:52;;;;;;;15.80;8.43;;;0.30;99.90;;;;;;5121512;28;20224;-79
2023/02/08 15:02:25;;;;;;;13.93;7.60;;;0.00;99.90;;;;;;5119686;28;20535;-79
2023/02/08 15:04:51;;;;;;;17.10;9.20;;;0.10;99.90;;;;;;5121084;28;20199;-79
2023/02/08 15:07:43;;;;;;;16.43;8.73;;;0.00;99.90;;;;;;5122324;28;20232;-79
2023/02/08 15:10:12;;;;;;;20.00;8.43;;;-0.30;99.90;;;;;;5121620;28;20534;-79
2023/02/08 15:12:41;;;;;;;15.90;9.50;;;-0.10;99.90;;;;;;5121544;28;20183;-79
2023/02/08 15:15:24;;;;;;;13.73;9.43;;;-0.20;99.90;;;;;;5122120;28;20203;-79
2023/02/08 15:17:52;;;;;;;16.77;10.47;;;-0.20;99.90;;;;;;5120663;28;20171;-79
2023/02/08 15:20:25;;;;;;;21.77;11.67;;;-0.30;99.90;;;;;;5122403;28;20405;-80
2023/02/08 15:23:16;;;;;;;19.13;12.17;;;-0.40;99.90;;;;;;5120970;28;20456;-79
2023/02/08 15:25:42;;;;;;;23.17;12.07;;;;;;;;;;5120882;28;20437;-79
2023/02/08 15:28:21;;;;;;;24.13;11.67;;;-0.50;99.90;;;;;;5120754;28;20413;-79
2023/02/08 15:31:08;;;;;;;22.50;11.37;;;-0.50;99.90;;;;;;5122169;28;20409;-79
2023/02/08 15:33:38;;;;;;;18.73;10.80;;;-0.60;99.90;;;;;;5120822;28;20440;-79
2023/02/08 15:36:14;;;;;;;23.63;12.13;;;-0.60;99.90;;;;;;5122393;28;20221;-80
2023/02/08 15:38:43;;;;;;;20.97;11.87;;;-0.70;99.90;;;;;;5121272;28;20416;-80
2023/02/08 15:41:12;;;;;;;22.10;11.40;;;-0.80;99.90;;;;;;5121529;28;20409;-80
2023/02/08 15:43:39;;;;;;;18.47;12.10;;;-0.90;99.90;;;;;;5120823;28;20195;-79
2023/02/08 15:46:26;;;;;;;19.23;11.90;;;-1.00;99.90;;;;;;5122565;28;20413;-79
2023/02/08 15:48:52;;;;;;;20.37;11.17;;;-1.30;99.90;;;;;;5123286;28;20439;-80
